Time;durP1;ratioP1;P1;durP2;ratioP2;P2;SDS_P1;SDS_P2;PMS_P1;PMS_P2;Temp;Humidity;BMP_temperature;BMP_pressure;BME280_temperature;BME280_humidity;BME280_pressure;Samples;Min_cycle;Max_cycle;Signal;HPM_P1;HPM_P2
2022/06/29 04:00:36;;;;;;;11.40;8.30;;;16.30;99.90;;;;;;5925060;23;20070;-73
2022/06/29 04:03:02;;;;;;;9.43;8.20;;;16.30;99.90;;;;;;4999973;28;20134;-73
2022/06/29 04:05:27;;;;;;;9.73;8.13;;;16.30;99.90;;;;;;4997467;28;20077;-73
2022/06/29 04:07:53;;;;;;;8.57;7.78;;;16.30;99.90;;;;;;4997274;28;20089;-73
2022/06/29 04:10:18;;;;;;;10.32;8.73;;;16.40;99.90;;;;;;5005892;28;20066;-72
2022/06/29 04:12:44;;;;;;;9.38;8.48;;;16.30;99.90;;;;;;4977703;28;20035;-73
2022/06/29 04:15:10;;;;;;;9.70;8.73;;;16.30;99.90;;;;;;5031130;23;20047;-74
2022/06/29 04:17:35;;;;;;;10.82;8.73;;;16.30;99.90;;;;;;4975485;28;20039;-73
2022/06/29 04:20:03;;;;;;;10.55;8.07;;;16.30;99.90;;;;;;4982443;28;20035;-74
2022/06/29 04:22:28;;;;;;;10.48;8.40;;;16.30;99.90;;;;;;5015982;28;20047;-74
2022/06/29 04:24:54;;;;;;;9.02;8.02;;;16.30;99.90;;;;;;4989626;28;20066;-73
2022/06/29 04:27:20;;;;;;;9.57;8.57;;;16.30;99.90;;;;;;4982458;28;20485;-74
2022/06/29 04:29:46;;;;;;;10.00;8.52;;;16.30;99.90;;;;;;4987746;28;20035;-74
2022/06/29 04:32:11;;;;;;;10.32;8.02;;;16.30;99.90;;;;;;4993213;28;20497;-75
2022/06/29 04:34:37;;;;;;;10.15;8.98;;;16.40;99.90;;;;;;4995766;28;20038;-74
2022/06/29 04:37:03;;;;;;;10.82;8.20;;;16.40;99.90;;;;;;4994991;28;20129;-74
2022/06/29 04:39:28;;;;;;;8.45;7.38;;;16.40;99.90;;;;;;4996929;28;20037;-75
2022/06/29 04:41:55;;;;;;;10.68;8.40;;;16.40;99.90;;;;;;4995647;28;20045;-74
2022/06/29 04:44:20;;;;;;;9.35;7.88;;;16.50;99.90;;;;;;4996476;28;20075;-75
2022/06/29 04:46:46;;;;;;;8.50;7.70;;;16.50;99.90;;;;;;4996582;28;20042;-75
2022/06/29 04:49:12;;;;;;;8.77;7.85;;;16.60;99.90;;;;;;4996590;28;20484;-74
2022/06/29 04:51:37;;;;;;;8.25;7.40;;;16.60;99.90;;;;;;4995209;28;20038;-74
2022/06/29 04:54:04;;;;;;;8.32;7.63;;;16.70;99.90;;;;;;4996576;28;20027;-75
2022/06/29 04:56:32;;;;;;;9.02;7.85;;;16.70;99.90;;;;;;4996533;28;20094;-74
2022/06/29 04:59:00;;;;;;;9.52;7.82;;;16.70;99.90;;;;;;4996509;28;20035;-75
2022/06/29 05:01:27;;;;;;;8.32;7.53;;;16.80;99.90;;;;;;4995119;28;20394;-75
2022/06/29 05:03:54;;;;;;;8.93;7.35;;;16.90;99.90;;;;;;4996344;28;20074;-77
2022/06/29 05:06:22;;;;;;;9.10;7.38;;;16.90;99.90;;;;;;4994827;28;20035;-74
2022/06/29 05:08:52;;;;;;;9.50;7.45;;;17.00;99.90;;;;;;4996365;28;20567;-74
2022/06/29 05:11:20;;;;;;;9.50;7.43;;;17.10;99.90;;;;;;4994946;28;20050;-76
2022/06/29 05:13:46;;;;;;;8.68;7.78;;;17.20;99.90;;;;;;4995538;28;20855;-75
2022/06/29 05:16:11;;;;;;;8.85;7.25;;;17.30;99.90;;;;;;4995804;28;20042;-75
2022/06/29 05:18:37;;;;;;;9.18;7.40;;;17.40;99.90;;;;;;4996163;28;20030;-75
2022/06/29 05:21:03;;;;;;;8.88;7.47;;;17.50;99.90;;;;;;4996232;28;20386;-75
2022/06/29 05:23:30;;;;;;;8.52;7.35;;;17.60;99.90;;;;;;4996056;28;20087;-75
2022/06/29 05:25:56;;;;;;;7.45;6.78;;;17.60;99.90;;;;;;4996327;28;20624;-75
2022/06/29 05:28:22;;;;;;;7.13;6.40;;;17.80;99.90;;;;;;4994973;28;20035;-75
2022/06/29 05:30:48;;;;;;;7.78;6.97;;;17.90;99.90;;;;;;4995986;28;20378;-75
2022/06/29 05:33:13;;;;;;;7.60;6.90;;;18.00;99.90;;;;;;4996300;28;20042;-75
2022/06/29 05:35:39;;;;;;;8.40;6.78;;;18.10;99.90;;;;;;4996274;28;20034;-75
2022/06/29 05:38:05;;;;;;;8.77;7.13;;;18.20;99.90;;;;;;4995788;28;20038;-75
2022/06/29 05:40:30;;;;;;;12.05;6.25;;;18.30;99.90;;;;;;4995641;28;20412;-75
2022/06/29 05:42:57;;;;;;;6.68;6.07;;;18.40;99.90;;;;;;4995625;28;20508;-75
2022/06/29 05:45:24;;;;;;;9.32;6.65;;;18.60;99.90;;;;;;4994165;28;20066;-74
2022/06/29 05:47:50;;;;;;;6.95;6.25;;;18.70;99.90;;;;;;4994170;28;20604;-74
2022/06/29 05:50:16;;;;;;;10.43;6.95;;;18.90;99.90;;;;;;4996026;28;20031;-74
2022/06/29 05:52:41;;;;;;;8.85;6.22;;;19.00;99.90;;;;;;4995304;28;20042;-75
2022/06/29 05:55:08;;;;;;;7.45;6.43;;;19.00;99.90;;;;;;4995534;28;20489;-74
2022/06/29 05:57:34;;;;;;;9.27;6.53;;;19.00;99.90;;;;;;4995557;28;20035;-74
2022/06/29 06:00:01;;;;;;;8.35;6.60;;;19.10;99.90;;;;;;4995372;28;20035;-75
2022/06/29 06:02:27;;;;;;;7.40;6.25;;;19.20;99.90;;;;;;4995590;28;20489;-74
2022/06/29 06:04:53;;;;;;;7.05;6.30;;;19.20;99.90;;;;;;4995184;28;20034;-75
2022/06/29 06:07:18;;;;;;;9.00;6.45;;;19.40;99.90;;;;;;4995362;28;20488;-74
2022/06/29 06:09:44;;;;;;;7.07;6.38;;;19.40;99.90;;;;;;4995647;28;20042;-74
2022/06/29 06:12:09;;;;;;;7.60;6.25;;;19.50;99.90;;;;;;4995696;28;20041;-73
2022/06/29 06:14:35;;;;;;;6.97;6.30;;;19.60;99.90;;;;;;4994040;28;20039;-74
2022/06/29 06:17:00;;;;;;;7.95;6.60;;;19.70;99.90;;;;;;4995192;28;20045;-74
2022/06/29 06:19:26;;;;;;;7.38;6.63;;;19.70;99.90;;;;;;4995534;28;20370;-73
2022/06/29 06:21:52;;;;;;;8.55;7.22;;;19.70;99.90;;;;;;4995251;28;20539;-74
2022/06/29 06:24:17;;;;;;;7.55;6.80;;;19.80;99.90;;;;;;4995187;28;20035;-74
2022/06/29 06:26:43;;;;;;;8.45;7.22;;;19.80;99.90;;;;;;4995166;28;20074;-75
2022/06/29 06:29:08;;;;;;;8.75;6.95;;;19.80;99.90;;;;;;4994878;28;20035;-73
2022/06/29 06:31:34;;;;;;;8.27;6.60;;;19.70;99.90;;;;;;4994961;28;20062;-73
2022/06/29 06:34:00;;;;;;;7.40;6.50;;;19.80;99.90;;;;;;4994949;28;20110;-74
2022/06/29 06:36:26;;;;;;;7.72;6.70;;;19.90;99.90;;;;;;4995001;28;20039;-74
2022/06/29 06:38:51;;;;;;;7.60;6.65;;;19.90;99.90;;;;;;4993706;28;20081;-75
2022/06/29 06:41:23;;;;;;;7.40;6.70;;;19.90;99.90;;;;;;4995130;28;20110;-73
2022/06/29 06:43:50;;;;;;;7.75;6.97;;;20.00;99.90;;;;;;4994717;28;20045;-74
2022/06/29 06:46:16;;;;;;;6.75;6.15;;;20.00;99.90;;;;;;4993418;28;20137;-74
2022/06/29 06:48:43;;;;;;;6.85;6.07;;;20.10;99.90;;;;;;4994949;28;20062;-74
2022/06/29 06:51:10;;;;;;;7.00;6.30;;;20.20;99.90;;;;;;4993500;28;20085;-74
2022/06/29 06:53:35;;;;;;;6.47;5.88;;;20.40;99.90;;;;;;4994952;28;20493;-74
2022/06/29 06:56:01;;;;;;;8.50;6.47;;;20.60;99.90;;;;;;4994354;28;20077;-74
2022/06/29 06:58:27;;;;;;;8.02;6.82;;;20.80;99.90;;;;;;4994633;28;20049;-74
2022/06/29 07:00:52;;;;;;;7.10;6.50;;;20.80;99.90;;;;;;4994684;28;20109;-74
2022/06/29 07:03:18;;;;;;;7.75;6.82;;;21.00;99.90;;;;;;4994483;28;20366;-74
2022/06/29 07:05:43;;;;;;;6.88;6.20;;;21.20;99.90;;;;;;4997544;28;20040;-74
2022/06/29 07:08:09;;;;;;;8.95;6.40;;;21.20;99.90;;;;;;4998103;28;20042;-74
2022/06/29 07:10:34;;;;;;;7.65;5.78;;;21.20;99.90;;;;;;4998187;28;20118;-74
2022/06/29 07:13:00;;;;;;;6.60;5.85;;;21.20;99.90;;;;;;4996369;28;20409;-75
2022/06/29 07:15:25;;;;;;;7.07;5.63;;;21.20;99.90;;;;;;4997527;28;20539;-74
2022/06/29 07:17:51;;;;;;;7.57;5.82;;;21.40;99.90;;;;;;4997958;28;20495;-74
2022/06/29 07:20:16;;;;;;;6.85;6.15;;;21.60;99.90;;;;;;4998151;28;20173;-74
2022/06/29 07:22:42;;;;;;;7.45;5.90;;;21.60;99.90;;;;;;4997828;28;20038;-74
2022/06/29 07:25:08;;;;;;;9.32;5.80;;;21.70;99.90;;;;;;4997884;28;20034;-74
2022/06/29 07:27:33;;;;;;;7.70;6.05;;;21.80;99.90;;;;;;4996199;28;20632;-74
2022/06/29 07:29:59;;;;;;;8.13;5.93;;;22.00;99.90;;;;;;4996458;28;20058;-73
2022/06/29 07:32:25;;;;;;;6.28;5.68;;;22.10;99.90;;;;;;4998028;28;20117;-73
2022/06/29 07:34:51;;;;;;;6.40;5.78;;;22.40;99.90;;;;;;4997771;28;20083;-74
2022/06/29 07:37:16;;;;;;;5.60;5.10;;;22.60;99.90;;;;;;4997379;28;20129;-74
2022/06/29 07:39:42;;;;;;;9.30;5.38;;;22.90;99.90;;;;;;4997774;28;20503;-74
2022/06/29 07:42:08;;;;;;;6.78;4.50;;;23.10;99.90;;;;;;4997560;28;20041;-75
2022/06/29 07:44:33;;;;;;;6.70;4.80;;;23.40;99.90;;;;;;4997541;28;20059;-74
2022/06/29 07:46:59;;;;;;;5.43;4.93;;;23.80;99.90;;;;;;4997489;28;20113;-74
2022/06/29 07:49:24;;;;;;;7.28;4.68;;;24.10;99.90;;;;;;4997560;28;20121;-74
2022/06/29 07:51:53;;;;;;;5.10;4.35;;;24.10;99.90;;;;;;4997844;28;20039;-74
2022/06/29 07:54:18;;;;;;;5.70;4.63;;;24.00;99.90;;;;;;4997303;28;20026;-75
2022/06/29 07:56:44;;;;;;;4.35;3.95;;;24.20;99.90;;;;;;4996741;28;20039;-74
2022/06/29 07:59:10;;;;;;;5.43;4.32;;;24.30;99.90;;;;;;4997495;28;20026;-74
2022/06/29 08:01:35;;;;;;;6.63;4.10;;;24.30;99.90;;;;;;4997462;28;20035;-74
2022/06/29 08:04:01;;;;;;;4.65;4.25;;;24.50;99.90;;;;;;4997473;28;20504;-74
2022/06/29 08:06:27;;;;;;;7.05;4.18;;;24.70;99.90;;;;;;4997148;28;20045;-74
2022/06/29 08:08:53;;;;;;;4.70;4.30;;;24.90;99.90;;;;;;4997078;28;20039;-74
2022/06/29 08:11:18;;;;;;;6.47;4.00;;;25.30;99.90;;;;;;4995491;28;20035;-74
2022/06/29 08:13:44;;;;;;;5.63;3.70;;;25.60;99.90;;;;;;4997111;28;20031;-76
2022/06/29 08:16:10;;;;;;;5.40;3.67;;;25.60;99.90;;;;;;4996858;28;20034;-76
2022/06/29 08:18:37;;;;;;;4.88;4.30;;;25.90;99.90;;;;;;4997120;28;20113;-76
2022/06/29 08:21:04;;;;;;;5.47;4.75;;;25.90;99.90;;;;;;4997050;28;20031;-76
2022/06/29 08:23:30;;;;;;;4.82;4.28;;;26.20;99.90;;;;;;4996926;28;20073;-76
2022/06/29 08:25:56;;;;;;;5.68;5.00;;;25.90;99.90;;;;;;4996727;28;20076;-77
2022/06/29 08:28:23;;;;;;;4.30;3.88;;;25.90;99.90;;;;;;4997271;28;20091;-76
2022/06/29 08:30:49;;;;;;;4.20;3.80;;;26.20;99.90;;;;;;4995528;28;20066;-76
2022/06/29 08:33:14;;;;;;;4.55;4.13;;;26.50;99.90;;;;;;4997736;28;20035;-76
2022/06/29 08:35:41;;;;;;;5.43;4.20;;;27.00;99.90;;;;;;4995058;28;20035;-76
2022/06/29 08:38:07;;;;;;;4.72;3.60;;;27.10;99.90;;;;;;4996669;28;20097;-76
2022/06/29 08:40:47;;;;;;;5.45;4.07;;;27.00;99.10;;;;;;4995413;28;20031;-76
2022/06/29 08:43:16;;;;;;;4.53;4.10;;;27.20;99.70;;;;;;4996957;28;20031;-77
2022/06/29 08:45:44;;;;;;;5.90;3.80;;;27.30;99.90;;;;;;4996042;28;20497;-77
2022/06/29 08:48:11;;;;;;;5.25;3.95;;;27.10;99.60;;;;;;4995604;28;20051;-77
2022/06/29 08:50:50;;;;;;;5.70;4.00;;;26.90;99.20;;;;;;4996722;28;20041;-75
2022/06/29 08:53:17;;;;;;;4.93;3.92;;;27.00;99.90;;;;;;4975998;28;20042;-77
2022/06/29 08:55:48;;;;;;;5.35;4.10;;;27.50;98.70;;;;;;4976582;28;20031;-77
2022/06/29 08:58:17;;;;;;;4.60;4.03;;;28.10;97.70;;;;;;4977391;28;20045;-77
2022/06/29 09:00:42;;;;;;;5.07;4.57;;;27.80;97.50;;;;;;4977914;28;20549;-77
2022/06/29 09:03:09;;;;;;;4.43;4.03;;;27.90;97.00;;;;;;4977858;28;20114;-77
2022/06/29 09:05:34;;;;;;;4.40;3.97;;;28.00;97.60;;;;;;4977500;28;20031;-77
2022/06/29 09:08:00;;;;;;;4.78;4.28;;;27.80;98.30;;;;;;4976014;28;20031;-76
2022/06/29 09:10:29;;;;;;;6.00;3.65;;;27.40;97.10;;;;;;4978576;28;20039;-77
2022/06/29 09:12:57;;;;;;;4.63;4.13;;;27.30;98.60;;;;;;4973593;28;20079;-77
2022/06/29 09:15:34;;;;;;;4.20;3.80;;;27.20;98.30;;;;;;4976243;28;20038;-77
2022/06/29 09:18:01;;;;;;;5.28;4.10;;;27.30;97.70;;;;;;4975599;28;20112;-77
2022/06/29 09:20:41;;;;;;;5.07;4.28;;;27.30;98.80;;;;;;4976331;28;20023;-77
2022/06/29 09:23:09;;;;;;;4.53;4.13;;;27.30;99.10;;;;;;4976131;28;20032;-77
2022/06/29 09:25:39;;;;;;;6.63;4.70;;;27.50;97.50;;;;;;5007810;28;20489;-77
2022/06/29 09:28:26;;;;;;;5.93;4.95;;;27.60;98.30;;;;;;4975321;28;20090;-75
2022/06/29 09:30:53;;;;;;;4.60;4.20;;;27.80;96.30;;;;;;4974893;28;20098;-75
2022/06/29 09:33:21;;;;;;;7.35;4.32;;;28.00;96.00;;;;;;4975914;28;20035;-77
2022/06/29 09:36:07;;;;;;;4.47;4.07;;;28.00;96.00;;;;;;4974551;28;20090;-77
2022/06/29 09:38:32;;;;;;;6.68;5.93;;;27.60;97.20;;;;;;4977733;28;20094;-75
2022/06/29 09:41:12;;;;;;;5.68;4.50;;;27.60;96.50;;;;;;4976677;28;20094;-75
2022/06/29 09:43:43;;;;;;;5.32;4.30;;;27.90;95.70;;;;;;4975429;28;20462;-74
2022/06/29 09:46:11;;;;;;;6.82;4.75;;;27.80;95.10;;;;;;4975479;28;20044;-74
2022/06/29 09:48:38;;;;;;;5.40;4.90;;;27.40;97.00;;;;;;4975819;28;20035;-74
2022/06/29 09:53:53;;;;;;;6.43;4.97;;;26.90;96.40;;;;;;4976411;28;20481;-74
2022/06/29 09:56:20;;;;;;;8.18;4.93;;;27.00;97.70;;;;;;4975947;28;20508;-74
2022/06/29 09:58:47;;;;;;;5.13;4.63;;;27.50;95.90;;;;;;4975721;28;20031;-75
2022/06/29 10:03:58;;;;;;;5.38;4.88;;;29.10;94.00;;;;;;4973214;28;20043;-76
2022/06/29 10:06:24;;;;;;;5.05;4.40;;;29.70;92.80;;;;;;4975349;28;20130;-73
2022/06/29 10:08:51;;;;;;;7.78;4.85;;;29.40;92.50;;;;;;4975845;28;20031;-74
2022/06/29 10:14:37;;;;;;;5.68;4.40;;;28.40;93.70;;;;;;4998468;23;20047;-73
2022/06/29 10:17:12;;;;;;;6.05;4.45;;;28.90;95.50;;;;;;4992431;28;20070;-73
2022/06/29 10:19:46;;;;;;;6.70;4.28;;;29.60;91.50;;;;;;4995136;28;20035;-74
2022/06/29 10:22:12;;;;;;;5.10;4.32;;;30.10;92.00;;;;;;4995194;28;20027;-74
2022/06/29 10:24:38;;;;;;;4.60;4.20;;;30.60;91.40;;;;;;4994735;28;20027;-74
2022/06/29 10:27:08;;;;;;;5.20;4.70;;;30.80;88.70;;;;;;4992994;28;20547;-74
2022/06/29 10:29:34;;;;;;;6.70;4.57;;;31.50;85.60;;;;;;4994607;28;20061;-74
2022/06/29 10:32:11;;;;;;;5.18;4.20;;;31.30;85.70;;;;;;4994918;28;20519;-74
2022/06/29 10:34:41;;;;;;;6.30;4.68;;;31.10;83.70;;;;;;4994721;28;20400;-74
2022/06/29 10:37:09;;;;;;;5.25;4.43;;;30.90;84.70;;;;;;4994008;28;20043;-74
2022/06/29 10:39:44;;;;;;;6.30;4.20;;;30.60;87.20;;;;;;4996513;28;20026;-73
2022/06/29 10:45:18;;;;;;;6.25;4.75;;;29.80;86.80;;;;;;5006470;28;20042;-73
2022/06/29 10:47:55;;;;;;;5.35;4.53;;;29.50;88.90;;;;;;5013448;28;20030;-74
2022/06/29 10:50:23;;;;;;;4.90;4.10;;;29.30;89.80;;;;;;5014290;28;20038;-73
2022/06/29 10:52:50;;;;;;;5.47;4.30;;;29.10;89.80;;;;;;5013628;28;20377;-73
2022/06/29 10:55:16;;;;;;;5.38;3.97;;;28.80;91.40;;;;;;5013988;28;20038;-73
2022/06/29 10:57:43;;;;;;;4.97;3.92;;;28.90;91.90;;;;;;5013120;28;20046;-74
2022/06/29 11:00:22;;;;;;;4.28;3.85;;;29.00;90.40;;;;;;5014052;28;20113;-74
2022/06/29 11:02:48;;;;;;;9.13;4.25;;;28.90;91.80;;;;;;5003255;28;20075;-75
2022/06/29 11:05:14;;;;;;;4.53;4.03;;;29.40;90.90;;;;;;5013824;28;20118;-75
2022/06/29 11:13:30;;;;;;;4.78;3.70;;;30.50;83.80;;;;;;5012620;28;20487;-73
2022/06/29 11:15:58;;;;;;;3.90;3.55;;;30.90;82.10;;;;;;5013077;28;20034;-75
2022/06/29 11:18:31;;;;;;;5.40;3.78;;;31.50;82.00;;;;;;5013377;28;20470;-74
2022/06/29 11:21:08;;;;;;;6.47;3.72;;;31.90;81.60;;;;;;5010570;28;20082;-74
2022/06/29 11:23:35;;;;;;;4.28;3.60;;;31.70;80.70;;;;;;5009754;28;20488;-74
2022/06/29 11:26:03;;;;;;;4.22;3.60;;;31.40;79.90;;;;;;5012362;28;20483;-74
2022/06/29 11:28:30;;;;;;;5.90;3.95;;;32.10;81.90;;;;;;5008596;28;20049;-74
2022/06/29 11:31:07;;;;;;;4.40;3.92;;;32.90;76.40;;;;;;5011729;28;20536;-78
2022/06/29 11:33:39;;;;;;;7.07;3.92;;;32.90;76.40;;;;;;5011656;28;20046;-74
2022/06/29 11:36:16;;;;;;;4.20;3.80;;;33.40;75.60;;;;;;5011925;28;20030;-74
2022/06/29 11:38:46;;;;;;;8.05;3.83;;;33.30;74.90;;;;;;5014272;28;20117;-74
2022/06/29 11:41:19;;;;;;;4.95;3.63;;;32.30;78.10;;;;;;5013730;28;20130;-73
2022/06/29 11:43:46;;;;;;;3.85;3.50;;;32.00;78.80;;;;;;5012244;28;20488;-74
2022/06/29 11:46:22;;;;;;;6.78;3.47;;;32.60;82.80;;;;;;5013603;28;20053;-74
2022/06/29 11:51:53;;;;;;;7.03;4.00;;;33.00;74.80;;;;;;5015999;28;20038;-74
2022/06/29 11:54:40;;;;;;;4.28;3.65;;;33.60;73.50;;;;;;5016687;28;20484;-75
2022/06/29 11:57:12;;;;;;;5.18;4.00;;;34.30;76.50;;;;;;5016755;28;20217;-75
2022/06/29 11:59:39;;;;;;;6.70;4.20;;;34.10;71.00;;;;;;5016721;28;20034;-75
2022/06/29 12:02:05;;;;;;;6.35;3.63;;;33.30;72.60;;;;;;5016972;28;20089;-77
2022/06/29 12:04:33;;;;;;;4.38;3.90;;;33.30;72.90;;;;;;5016693;28;20030;-75
2022/06/29 12:07:10;;;;;;;4.50;4.00;;;33.00;75.10;;;;;;5016001;28;20035;-75
2022/06/29 12:09:38;;;;;;;5.53;4.10;;;32.50;75.70;;;;;;5015467;28;20886;-75
2022/06/29 12:12:06;;;;;;;4.47;3.90;;;32.70;75.20;;;;;;5016379;28;20042;-75
2022/06/29 12:14:32;;;;;;;4.47;3.80;;;32.30;75.80;;;;;;5016824;28;20495;-75
2022/06/29 12:16:57;;;;;;;7.53;4.28;;;32.20;78.30;;;;;;5016325;28;20053;-75
2022/06/29 12:19:23;;;;;;;4.95;4.22;;;31.70;76.70;;;;;;5016999;28;20388;-75
2022/06/29 12:21:49;;;;;;;7.30;4.10;;;31.50;78.40;;;;;;5016778;28;20041;-75
2022/06/29 12:24:18;;;;;;;5.70;4.00;;;31.40;78.00;;;;;;5016226;28;20519;-75
2022/06/29 12:26:45;;;;;;;5.20;4.15;;;31.50;75.60;;;;;;5011514;28;20034;-75
2022/06/29 12:29:13;;;;;;;8.65;4.35;;;31.10;81.80;;;;;;5016375;28;20093;-75
2022/06/29 12:31:42;;;;;;;5.40;4.22;;;31.00;78.60;;;;;;5014580;28;20034;-75
2022/06/29 12:34:09;;;;;;;7.07;3.60;;;30.80;79.90;;;;;;5016117;28;20113;-75
2022/06/29 12:36:35;;;;;;;4.78;4.15;;;30.60;83.40;;;;;;5015897;28;20081;-76
2022/06/29 12:39:00;;;;;;;5.53;4.10;;;30.80;81.00;;;;;;5017004;28;20057;-76
2022/06/29 12:41:26;;;;;;;4.93;3.90;;;31.20;77.10;;;;;;5017251;28;20058;-75
2022/06/29 12:43:52;;;;;;;4.13;3.58;;;31.20;80.10;;;;;;5015332;28;20026;-75
2022/06/29 12:46:18;;;;;;;4.53;3.50;;;31.50;76.60;;;;;;5015684;28;20489;-75
2022/06/29 12:48:43;;;;;;;4.05;3.70;;;31.30;79.50;;;;;;5016578;28;20034;-75
2022/06/29 12:51:09;;;;;;;5.43;3.92;;;31.30;79.90;;;;;;5016328;28;20061;-75
2022/06/29 12:53:35;;;;;;;5.38;3.72;;;31.20;81.10;;;;;;5016193;28;20089;-75
2022/06/29 12:56:02;;;;;;;6.07;3.90;;;31.00;75.40;;;;;;5015463;28;20036;-75
2022/06/29 12:58:27;;;;;;;6.63;4.45;;;31.00;85.40;;;;;;5014729;28;20042;-74
2022/06/29 13:00:53;;;;;;;8.88;4.30;;;30.80;79.40;;;;;;5016158;28;20076;-74
2022/06/29 13:03:19;;;;;;;6.00;4.10;;;30.50;79.40;;;;;;5015270;28;20039;-74
2022/06/29 13:05:44;;;;;;;6.45;3.65;;;30.90;78.50;;;;;;5016060;28;20030;-73
2022/06/29 13:08:11;;;;;;;5.90;4.30;;;31.70;78.40;;;;;;5015638;28;20042;-73
2022/06/29 13:10:37;;;;;;;4.60;3.90;;;31.80;76.80;;;;;;5014143;28;20112;-73
2022/06/29 13:13:03;;;;;;;5.82;3.45;;;32.30;79.50;;;;;;5014565;28;20092;-73
2022/06/29 13:15:29;;;;;;;5.95;3.63;;;32.80;76.80;;;;;;5014227;28;20080;-74
2022/06/29 13:17:55;;;;;;;6.93;3.58;;;33.20;74.40;;;;;;5015645;28;20128;-74
2022/06/29 13:20:20;;;;;;;4.32;3.40;;;33.30;73.70;;;;;;5015985;28;20043;-74
2022/06/29 13:22:46;;;;;;;6.32;3.22;;;33.50;74.30;;;;;;5016066;28;20041;-74
2022/06/29 13:25:12;;;;;;;7.22;3.65;;;33.40;78.40;;;;;;5015284;28;20034;-74
2022/06/29 13:27:37;;;;;;;5.55;3.58;;;34.70;68.70;;;;;;5015573;28;20034;-74
2022/06/29 13:30:04;;;;;;;4.78;3.30;;;35.40;65.30;;;;;;5015926;28;20038;-74
2022/06/29 13:32:30;;;;;;;5.07;3.20;;;35.60;69.00;;;;;;5015586;28;20034;-74
2022/06/29 13:34:55;;;;;;;3.63;3.10;;;36.40;66.00;;;;;;5014173;28;20037;-74
2022/06/29 13:37:21;;;;;;;6.47;3.50;;;36.80;62.70;;;;;;5015420;28;20117;-74
2022/06/29 13:39:47;;;;;;;4.60;3.08;;;36.30;62.50;;;;;;5015810;28;20026;-74
2022/06/29 13:42:12;;;;;;;6.85;3.53;;;35.60;62.90;;;;;;5015690;28;20042;-74
2022/06/29 13:44:38;;;;;;;4.07;3.22;;;34.20;63.60;;;;;;5015288;28;20412;-74
2022/06/29 13:47:03;;;;;;;5.07;3.47;;;33.30;68.70;;;;;;5015308;28;20034;-74
2022/06/29 13:49:29;;;;;;;4.38;3.25;;;33.70;72.50;;;;;;5015569;28;20087;-74
2022/06/29 13:51:55;;;;;;;6.10;3.40;;;34.70;66.80;;;;;;5015359;28;20034;-75
2022/06/29 13:54:20;;;;;;;5.32;3.40;;;35.50;64.70;;;;;;5015330;28;20037;-75
2022/06/29 13:56:46;;;;;;;5.47;3.50;;;35.80;61.60;;;;;;5013511;28;20053;-75
2022/06/29 13:59:11;;;;;;;4.22;3.00;;;35.30;60.10;;;;;;5015469;28;20035;-75
2022/06/29 14:01:37;;;;;;;4.32;3.55;;;34.20;63.90;;;;;;5013765;28;20077;-75
2022/06/29 14:04:03;;;;;;;3.28;2.97;;;32.80;70.70;;;;;;5015209;28;20026;-74
2022/06/29 14:06:28;;;;;;;6.03;3.67;;;31.90;68.70;;;;;;5015212;28;20038;-74
2022/06/29 14:08:54;;;;;;;5.40;3.63;;;31.30;73.40;;;;;;5015185;28;20034;-74
2022/06/29 14:11:20;;;;;;;6.85;3.63;;;30.90;74.70;;;;;;5015002;28;20038;-74
2022/06/29 14:13:46;;;;;;;8.43;3.90;;;30.40;76.90;;;;;;5013092;28;20459;-74
2022/06/29 14:16:11;;;;;;;5.57;3.60;;;30.00;74.70;;;;;;5014237;28;20070;-75
2022/06/29 14:18:38;;;;;;;4.00;3.22;;;31.10;78.30;;;;;;5014648;28;20128;-78
2022/06/29 14:21:05;;;;;;;7.55;3.42;;;33.50;74.60;;;;;;5016208;28;20074;-75
2022/06/29 14:23:30;;;;;;;5.50;3.55;;;35.10;66.00;;;;;;5015515;28;20101;-77
2022/06/29 14:25:56;;;;;;;5.13;3.30;;;35.70;63.70;;;;;;5015019;28;20480;-74
2022/06/29 14:28:22;;;;;;;4.63;3.13;;;35.40;64.60;;;;;;5014608;28;20030;-74
2022/06/29 14:30:48;;;;;;;4.45;3.20;;;35.60;62.30;;;;;;5015416;28;20030;-74
2022/06/29 14:33:20;;;;;;;4.90;3.42;;;36.60;62.40;;;;;;5014766;28;20049;-74
2022/06/29 14:35:45;;;;;;;7.60;3.30;;;37.70;58.30;;;;;;5010919;28;20066;-74
2022/06/29 14:38:11;;;;;;;9.32;3.20;;;39.00;55.30;;;;;;5013849;28;20129;-75
2022/06/29 14:40:37;;;;;;;3.47;2.70;;;38.70;55.80;;;;;;5014544;28;20038;-75
2022/06/29 14:43:03;;;;;;;6.75;3.17;;;39.30;54.60;;;;;;5014860;28;20030;-75
2022/06/29 14:45:29;;;;;;;3.88;3.03;;;39.90;53.30;;;;;;5014163;28;20038;-74
2022/06/29 14:47:55;;;;;;;6.25;3.47;;;40.20;52.50;;;;;;5014808;28;20417;-76
2022/06/29 14:50:22;;;;;;;4.97;3.20;;;39.80;51.30;;;;;;5014998;28;20072;-75
2022/06/29 14:52:50;;;;;;;4.75;3.00;;;38.40;54.70;;;;;;5015075;28;20030;-76
2022/06/29 14:55:16;;;;;;;5.93;3.53;;;39.30;56.50;;;;;;5015168;28;20046;-77
2022/06/29 14:57:42;;;;;;;4.47;3.05;;;40.10;54.50;;;;;;5014187;28;20057;-75
2022/06/29 15:00:09;;;;;;;4.88;2.95;;;40.50;51.60;;;;;;5014264;28;20041;-73
2022/06/29 15:02:35;;;;;;;4.00;2.88;;;41.60;52.20;;;;;;5014061;28;20557;-73
2022/06/29 15:05:01;;;;;;;4.07;2.75;;;42.00;52.80;;;;;;5013766;28;20113;-73
2022/06/29 15:07:27;;;;;;;5.10;3.40;;;42.40;45.60;;;;;;5013585;28;20049;-73
2022/06/29 15:09:52;;;;;;;4.55;2.90;;;42.50;45.70;;;;;;5013739;28;20038;-74
2022/06/29 15:12:18;;;;;;;4.13;2.70;;;42.40;49.70;;;;;;5013963;28;20122;-73
2022/06/29 15:14:44;;;;;;;4.63;2.95;;;41.80;46.10;;;;;;5012319;28;20459;-72
2022/06/29 15:17:09;;;;;;;3.22;2.92;;;39.00;50.60;;;;;;5013608;28;20038;-72
2022/06/29 15:19:35;;;;;;;4.05;3.00;;;37.00;55.30;;;;;;5014284;28;20035;-72
2022/06/29 15:22:00;;;;;;;3.95;2.92;;;38.00;53.40;;;;;;5014299;28;20401;-73
2022/06/29 15:24:26;;;;;;;4.28;3.05;;;38.50;50.90;;;;;;5013990;28;20113;-72
2022/06/29 15:26:52;;;;;;;3.83;3.20;;;36.10;57.50;;;;;;5016698;28;20030;-72
2022/06/29 15:29:18;;;;;;;6.15;3.40;;;34.30;57.80;;;;;;5017737;28;20034;-73
2022/06/29 15:31:43;;;;;;;5.13;3.60;;;33.20;62.30;;;;;;5017703;28;20559;-73
2022/06/29 15:39:39;;;;;;;4.80;3.22;;;34.00;64.60;;;;;;5017469;28;20109;-74
2022/06/29 15:42:06;;;;;;;6.55;3.22;;;36.60;58.00;;;;;;5008606;28;20047;-75
2022/06/29 15:44:31;;;;;;;4.35;3.20;;;38.20;53.80;;;;;;4996684;28;20043;-74
2022/06/29 15:46:57;;;;;;;4.78;3.45;;;38.90;51.90;;;;;;4997283;28;20436;-74
2022/06/29 15:49:23;;;;;;;8.05;3.80;;;39.20;54.70;;;;;;4997343;28;20039;-75
2022/06/29 15:51:49;;;;;;;7.13;3.50;;;40.50;53.30;;;;;;4997211;28;20444;-75
2022/06/29 15:56:59;;;;;;;3.80;3.00;;;40.40;49.40;;;;;;4977618;28;20519;-75
2022/06/29 15:59:24;;;;;;;4.90;2.90;;;41.20;48.80;;;;;;4992708;28;20038;-75
2022/06/29 16:01:50;;;;;;;4.18;2.85;;;42.10;47.50;;;;;;4997713;28;20131;-75
2022/06/29 16:04:16;;;;;;;3.65;3.15;;;42.20;49.10;;;;;;4997152;28;20484;-75
2022/06/29 16:06:41;;;;;;;5.15;3.22;;;42.20;47.10;;;;;;4997187;28;20042;-75
2022/06/29 16:09:08;;;;;;;4.55;3.00;;;40.80;46.70;;;;;;4996806;28;20034;-75
2022/06/29 16:14:20;;;;;;;3.58;3.25;;;38.70;49.20;;;;;;4997994;28;20084;-75
2022/06/29 16:16:46;;;;;;;3.22;2.92;;;37.90;51.60;;;;;;4996627;28;20035;-75
2022/06/29 16:19:11;;;;;;;4.85;2.80;;;39.10;51.30;;;;;;4996378;28;20047;-75
2022/06/29 16:21:37;;;;;;;6.13;2.78;;;40.20;49.10;;;;;;5006804;28;20527;-75
2022/06/29 16:24:03;;;;;;;5.22;2.97;;;40.30;48.80;;;;;;5015848;28;20416;-77
2022/06/29 16:26:29;;;;;;;4.40;2.95;;;40.80;48.80;;;;;;5016195;28;20126;-77
2022/06/29 16:28:55;;;;;;;5.53;3.08;;;40.20;47.50;;;;;;5014107;28;20034;-76
2022/06/29 16:31:20;;;;;;;5.30;3.08;;;39.40;50.70;;;;;;5014482;28;20053;-79
2022/06/29 16:33:46;;;;;;;3.85;3.00;;;38.40;49.80;;;;;;5016524;28;20042;-75
2022/06/29 16:36:11;;;;;;;4.65;3.10;;;37.40;51.60;;;;;;5015355;28;20042;-75
2022/06/29 16:38:37;;;;;;;4.57;3.20;;;36.00;53.10;;;;;;5013963;28;20041;-75
2022/06/29 16:41:02;;;;;;;4.13;2.80;;;34.60;56.40;;;;;;5014648;28;20042;-75
2022/06/29 16:43:28;;;;;;;4.00;3.15;;;33.80;58.90;;;;;;5014012;28;20064;-77
2022/06/29 16:45:54;;;;;;;3.47;3.17;;;32.80;59.70;;;;;;5015306;28;20053;-76
2022/06/29 16:48:19;;;;;;;3.30;3.00;;;31.90;64.90;;;;;;5009323;28;20034;-76
2022/06/29 16:50:45;;;;;;;4.63;3.25;;;31.70;68.20;;;;;;5016451;28;20378;-74
2022/06/29 16:53:11;;;;;;;4.18;3.10;;;31.50;67.00;;;;;;5011771;28;20079;-73
2022/06/29 16:55:37;;;;;;;5.05;2.97;;;31.20;65.00;;;;;;5011528;28;20049;-75
2022/06/29 16:58:02;;;;;;;6.35;2.45;;;31.00;68.00;;;;;;5015012;28;20042;-75
2022/06/29 17:00:28;;;;;;;3.50;2.85;;;30.60;67.70;;;;;;5014469;28;20404;-79
2022/06/29 17:02:53;;;;;;;3.97;2.80;;;30.20;69.20;;;;;;5014569;28;20404;-75
2022/06/29 17:05:19;;;;;;;3.80;2.80;;;30.00;68.10;;;;;;5016273;28;20047;-75
2022/06/29 17:07:44;;;;;;;4.65;2.70;;;30.00;66.20;;;;;;5000283;28;20046;-75
2022/06/29 17:10:10;;;;;;;4.05;2.88;;;30.00;66.50;;;;;;5016112;28;20038;-75
2022/06/29 17:12:35;;;;;;;4.05;2.67;;;29.90;67.00;;;;;;5001790;28;20122;-75
2022/06/29 17:15:01;;;;;;;4.07;3.10;;;30.00;68.00;;;;;;4995750;28;20151;-75